createdAt,value
2019-03-19T00:01:35.207Z,-5.90
2019-03-19T00:04:01.935Z,-5.90
2019-03-19T00:06:28.681Z,-5.90
2019-03-19T00:08:55.549Z,-5.80
2019-03-19T00:11:22.278Z,-5.90
2019-03-19T00:13:49.031Z,-6.00
2019-03-19T00:16:15.824Z,-6.00
2019-03-19T00:18:42.516Z,-6.00
2019-03-19T00:21:09.279Z,-5.90
2019-03-19T00:23:36.063Z,-6.10
2019-03-19T00:26:02.905Z,-6.10
2019-03-19T00:28:29.646Z,-6.00
2019-03-19T00:30:56.422Z,-6.20
2019-03-19T00:33:23.205Z,-6.20
2019-03-19T00:35:49.940Z,-6.30
2019-03-19T00:38:16.716Z,-6.30
2019-03-19T00:40:43.441Z,-6.40
2019-03-19T00:43:10.332Z,-6.30
2019-03-19T00:45:37.057Z,-6.40
2019-03-19T00:48:03.968Z,-6.40
2019-03-19T00:50:30.839Z,-6.50
2019-03-19T00:52:57.573Z,-6.60
2019-03-19T00:55:24.290Z,-6.60
2019-03-19T00:57:51.179Z,-6.50
2019-03-19T01:00:19.428Z,-6.50
2019-03-19T01:02:46.141Z,-6.40
2019-03-19T01:05:13.247Z,-6.60
2019-03-19T01:07:39.969Z,-6.60
2019-03-19T01:10:11.798Z,-6.60
2019-03-19T01:12:38.544Z,-6.60
2019-03-19T01:15:09.172Z,-6.60
2019-03-19T01:17:36.035Z,-6.50
2019-03-19T01:20:09.819Z,-6.50
2019-03-19T01:22:36.638Z,-6.50
2019-03-19T01:25:06.681Z,-6.60
2019-03-19T01:27:33.491Z,-6.50
2019-03-19T01:30:00.369Z,-6.50
2019-03-19T01:32:27.088Z,-6.50
2019-03-19T01:34:53.831Z,-6.60
2019-03-19T01:37:20.605Z,-6.70
2019-03-19T01:39:47.377Z,-6.80
2019-03-19T01:42:14.228Z,-6.80
2019-03-19T01:44:40.971Z,-6.80
2019-03-19T01:47:07.691Z,-6.80
2019-03-19T01:49:34.611Z,-6.70
2019-03-19T01:52:01.362Z,-6.70
2019-03-19T01:54:28.094Z,-6.80
2019-03-19T01:56:54.973Z,-6.80
2019-03-19T01:59:21.706Z,-6.80
2019-03-19T02:01:48.444Z,-6.90
2019-03-19T02:04:15.240Z,-6.80
2019-03-19T02:06:41.984Z,-6.80
2019-03-19T02:09:08.707Z,-6.80
2019-03-19T02:11:35.493Z,-6.80
2019-03-19T02:14:02.233Z,-6.90
2019-03-19T02:16:29.112Z,-6.90
2019-03-19T02:18:55.853Z,-6.90
2019-03-19T02:21:22.582Z,-6.80
2019-03-19T02:23:49.464Z,-6.80
2019-03-19T02:26:17.052Z,-6.90
2019-03-19T02:28:43.938Z,-7.00
2019-03-19T02:31:10.720Z,-7.20
2019-03-19T02:33:37.487Z,-7.30
2019-03-19T02:36:04.431Z,-7.20
2019-03-19T02:38:31.159Z,-7.00
2019-03-19T02:40:57.884Z,-7.00
2019-03-19T02:43:24.637Z,-7.10
2019-03-19T02:45:51.374Z,-7.20
2019-03-19T02:48:18.273Z,-7.30
2019-03-19T02:50:45.023Z,-7.20
2019-03-19T02:53:11.769Z,-7.10
2019-03-19T02:55:38.527Z,-6.90
2019-03-19T02:58:05.261Z,-6.90
2019-03-19T03:00:32.128Z,-6.90
2019-03-19T03:02:58.851Z,-7.10
2019-03-19T03:05:25.685Z,-7.10
2019-03-19T03:07:52.663Z,-7.10
2019-03-19T03:10:19.392Z,-7.20
2019-03-19T03:12:46.122Z,-7.10
2019-03-19T03:15:13.898Z,-7.10
2019-03-19T03:17:40.845Z,-7.10
2019-03-19T03:20:13.530Z,-7.00
2019-03-19T03:22:40.255Z,-6.90
2019-03-19T03:25:11.614Z,-6.90
2019-03-19T03:27:38.499Z,-7.00
2019-03-19T03:30:14.797Z,-6.90
2019-03-19T03:32:41.718Z,-7.00
2019-03-19T03:35:10.090Z,-7.00
2019-03-19T03:37:36.796Z,-7.10
2019-03-19T03:40:09.098Z,-7.20
2019-03-19T03:42:35.948Z,-7.30
2019-03-19T03:45:06.581Z,-7.20
2019-03-19T03:47:33.455Z,-7.30
2019-03-19T03:50:00.302Z,-7.20
2019-03-19T03:52:27.221Z,-7.30
2019-03-19T03:54:54.097Z,-7.40
2019-03-19T03:57:20.845Z,-7.30
2019-03-19T03:59:47.558Z,-7.20
2019-03-19T04:02:14.540Z,-7.10
2019-03-19T04:04:41.283Z,-7.20
2019-03-19T04:07:08.048Z,-7.40
2019-03-19T04:09:34.920Z,-7.50
2019-03-19T04:12:01.669Z,-7.40
2019-03-19T04:14:28.551Z,-7.30
2019-03-19T04:16:55.268Z,-7.30
2019-03-19T04:19:22.013Z,-7.30
2019-03-19T04:21:48.894Z,-7.30
2019-03-19T04:24:15.624Z,-7.30
2019-03-19T04:26:42.369Z,-7.40
2019-03-19T04:29:09.235Z,-7.40
2019-03-19T04:31:35.980Z,-7.30
2019-03-19T04:34:02.832Z,-7.30
2019-03-19T04:36:29.698Z,-7.20
2019-03-19T04:38:56.433Z,-7.30
2019-03-19T04:41:23.167Z,-7.40
2019-03-19T04:43:50.053Z,-7.40
2019-03-19T04:46:16.790Z,-7.40
2019-03-19T04:48:43.537Z,-7.40
2019-03-19T04:51:10.409Z,-7.30
2019-03-19T04:53:37.138Z,-7.40
2019-03-19T04:56:03.941Z,-7.40
2019-03-19T04:58:30.818Z,-7.40
2019-03-19T05:00:57.542Z,-7.40
2019-03-19T05:03:24.278Z,-7.50
2019-03-19T05:05:51.054Z,-7.40
2019-03-19T05:08:17.817Z,-7.30
2019-03-19T05:10:44.685Z,-7.40
2019-03-19T05:13:11.439Z,-7.40
2019-03-19T05:15:38.190Z,-7.40
2019-03-19T05:18:05.094Z,-7.40
2019-03-19T05:20:31.855Z,-7.40
2019-03-19T05:22:58.728Z,-7.50
2019-03-19T05:25:25.490Z,-7.60
2019-03-19T05:27:52.229Z,-7.50
2019-03-19T05:30:19.928Z,-7.40
2019-03-19T05:32:46.673Z,-7.50
2019-03-19T05:35:13.449Z,-7.30
2019-03-19T05:37:40.316Z,-7.30
2019-03-19T05:40:15.664Z,-7.10
2019-03-19T05:42:42.707Z,-7.10
2019-03-19T05:45:13.497Z,-7.30
2019-03-19T05:47:40.721Z,-7.40
2019-03-19T05:50:11.521Z,-7.30
2019-03-19T05:52:38.273Z,-7.20
2019-03-19T05:55:07.264Z,-7.20
2019-03-19T05:57:34.177Z,-7.20
2019-03-19T06:00:00.921Z,-7.10
2019-03-19T06:02:27.799Z,-7.10
2019-03-19T06:04:54.526Z,-7.10
2019-03-19T06:07:21.284Z,-7.10
2019-03-19T06:09:48.177Z,-7.10
2019-03-19T06:12:14.911Z,-7.00
2019-03-19T06:14:41.666Z,-7.00
2019-03-19T06:17:08.523Z,-7.10
2019-03-19T06:19:35.272Z,-7.00
2019-03-19T06:22:02.033Z,-7.10
2019-03-19T06:24:28.808Z,-7.20
2019-03-19T06:26:55.540Z,-7.10
2019-03-19T06:29:22.279Z,-6.90
2019-03-19T06:31:49.039Z,-7.00
2019-03-19T06:34:15.787Z,-6.90
2019-03-19T06:36:42.615Z,-6.90
2019-03-19T06:39:09.455Z,-6.90
2019-03-19T06:41:36.163Z,-6.70
2019-03-19T06:44:02.941Z,-6.70
2019-03-19T06:46:29.695Z,-6.80
2019-03-19T06:48:56.426Z,-6.80
2019-03-19T06:51:23.158Z,-6.80
2019-03-19T06:53:49.996Z,-6.70
2019-03-19T06:56:16.722Z,-6.60
2019-03-19T06:58:43.611Z,-6.40
2019-03-19T07:01:10.352Z,-6.40
2019-03-19T07:03:37.092Z,-6.40
2019-03-19T07:06:03.980Z,-6.50
2019-03-19T07:08:30.697Z,-6.40
2019-03-19T07:10:57.440Z,-6.40
2019-03-19T07:13:24.227Z,-6.30
2019-03-19T07:15:50.965Z,-6.20
2019-03-19T07:18:17.846Z,-6.20
2019-03-19T07:20:44.600Z,-6.30
2019-03-19T07:23:11.336Z,-6.20
2019-03-19T07:25:38.233Z,-6.10
2019-03-19T07:28:05.078Z,-6.10
2019-03-19T07:30:31.941Z,-5.90
2019-03-19T07:32:58.793Z,-5.90
2019-03-19T07:35:25.514Z,-5.90
2019-03-19T07:37:52.299Z,-5.80
2019-03-19T07:40:19.163Z,-5.70
2019-03-19T07:42:45.988Z,-5.50
2019-03-19T07:45:20.196Z,-5.30
2019-03-19T07:47:47.076Z,-5.30
2019-03-19T07:50:15.914Z,-5.00
2019-03-19T07:52:42.796Z,-4.90
2019-03-19T07:55:09.625Z,-4.70
2019-03-19T07:57:36.350Z,-4.50
2019-03-19T08:00:10.970Z,-4.40
2019-03-19T08:02:37.715Z,-4.40
2019-03-19T08:05:07.973Z,-4.20
2019-03-19T08:07:34.905Z,-4.10
2019-03-19T08:10:02.146Z,-3.90
2019-03-19T08:12:28.876Z,-3.80
2019-03-19T08:14:55.767Z,-3.70
2019-03-19T08:17:22.529Z,-3.60
2019-03-19T08:19:49.281Z,-3.50
2019-03-19T08:22:16.058Z,-3.40
2019-03-19T08:24:42.810Z,-3.30
2019-03-19T08:27:09.667Z,-3.30
2019-03-19T08:29:36.413Z,-3.10
2019-03-19T08:32:03.142Z,-3.10
2019-03-19T08:34:30.048Z,-3.00
2019-03-19T08:36:56.792Z,-3.00
2019-03-19T08:39:23.575Z,-2.90
2019-03-19T08:41:50.443Z,-2.70
2019-03-19T08:44:27.291Z,-2.60
2019-03-19T08:46:45.719Z,-2.50
2019-03-19T08:49:12.495Z,-2.50
2019-03-19T08:51:39.235Z,-2.40
2019-03-19T08:54:06.122Z,-2.30
2019-03-19T08:56:32.858Z,-2.30
2019-03-19T08:59:05.741Z,-2.20
2019-03-19T09:01:28.281Z,-2.00
2019-03-19T09:03:55.027Z,-1.90
2019-03-19T09:06:21.745Z,-1.80
2019-03-19T09:08:50.335Z,-1.70
2019-03-19T09:11:17.054Z,-1.60
2019-03-19T09:13:43.925Z,-1.50
2019-03-19T09:16:10.676Z,-1.40
2019-03-19T09:18:37.399Z,-1.40
2019-03-19T09:21:04.336Z,-1.40
2019-03-19T09:23:33.196Z,-1.30
2019-03-19T09:25:59.553Z,-1.30
2019-03-19T09:28:26.435Z,-1.30
2019-03-19T09:30:53.170Z,-1.20
2019-03-19T09:33:19.903Z,-1.20
2019-03-19T09:35:46.666Z,-1.10
2019-03-19T09:38:13.393Z,-1.00
2019-03-19T09:40:40.319Z,-1.00
2019-03-19T09:43:07.053Z,-0.90
2019-03-19T09:45:33.806Z,-0.80
2019-03-19T09:48:00.838Z,-0.70
2019-03-19T09:50:27.561Z,-0.70
2019-03-19T09:52:54.326Z,-0.50
2019-03-19T09:55:21.224Z,-0.50
2019-03-19T09:57:48.880Z,-0.40
2019-03-19T10:00:22.041Z,-0.40
2019-03-19T10:02:49.020Z,-0.30
2019-03-19T10:05:16.478Z,-0.30
2019-03-19T10:07:43.232Z,-0.30
2019-03-19T10:10:20.013Z,-0.20
2019-03-19T10:12:46.767Z,-0.20
2019-03-19T10:15:14.093Z,-0.10
2019-03-19T10:17:40.883Z,-0.10
2019-03-19T10:20:18.306Z,0.00
2019-03-19T10:22:45.750Z,0.00
2019-03-19T10:25:13.996Z,0.10
2019-03-19T10:27:40.765Z,0.20
2019-03-19T10:30:19.528Z,0.30
2019-03-19T10:32:46.459Z,0.30
2019-03-19T10:35:13.356Z,0.40
2019-03-19T10:37:40.103Z,0.40
2019-03-19T10:40:09.823Z,0.40
2019-03-19T10:42:36.606Z,0.50
2019-03-19T10:45:15.589Z,0.60
2019-03-19T10:47:42.688Z,0.70
2019-03-19T10:50:26.365Z,0.80
2019-03-19T10:52:53.359Z,1.00
2019-03-19T10:55:20.184Z,1.30
2019-03-19T10:57:46.941Z,1.90
2019-03-19T11:00:25.732Z,2.70
2019-03-19T11:02:52.680Z,3.60
2019-03-19T11:05:25.968Z,4.50
2019-03-19T11:07:52.713Z,5.40
2019-03-19T11:10:19.657Z,5.80
2019-03-19T11:12:46.538Z,6.10
2019-03-19T11:15:21.967Z,5.90
2019-03-19T11:17:48.842Z,6.70
2019-03-19T11:20:17.197Z,6.70
2019-03-19T11:22:44.038Z,7.40
2019-03-19T11:25:14.947Z,7.80
2019-03-19T11:27:42.591Z,7.90
2019-03-19T11:30:19.295Z,8.20
2019-03-19T11:32:46.063Z,8.20
2019-03-19T11:35:13.478Z,7.60
2019-03-19T11:37:40.351Z,7.80
2019-03-19T11:40:15.469Z,8.10
2019-03-19T11:42:42.549Z,8.30
2019-03-19T11:45:20.165Z,8.30
2019-03-19T11:47:47.046Z,8.40
2019-03-19T11:50:23.802Z,8.10
2019-03-19T11:52:51.213Z,8.40
2019-03-19T11:55:18.860Z,8.40
2019-03-19T11:57:45.616Z,8.60
2019-03-19T12:00:27.468Z,8.90
2019-03-19T12:02:54.244Z,8.80
2019-03-19T12:05:21.000Z,9.10
2019-03-19T12:07:47.872Z,9.00
2019-03-19T12:10:14.618Z,9.10
2019-03-19T12:12:41.350Z,9.60
2019-03-19T12:15:10.246Z,9.70
2019-03-19T12:17:37.000Z,9.50
2019-03-19T12:20:09.272Z,9.00
2019-03-19T12:22:36.034Z,8.20
2019-03-19T12:25:06.231Z,8.60
2019-03-19T12:27:33.404Z,8.80
2019-03-19T12:30:00.116Z,8.40
2019-03-19T12:32:26.839Z,8.80
2019-03-19T12:34:53.736Z,8.60
2019-03-19T12:37:20.486Z,8.90
2019-03-19T12:39:47.225Z,9.00
2019-03-19T12:42:14.148Z,8.10
2019-03-19T12:44:40.916Z,7.50
2019-03-19T12:47:07.649Z,6.40
2019-03-19T12:49:34.539Z,5.80
2019-03-19T12:52:01.269Z,5.60
2019-03-19T12:54:28.013Z,5.30
2019-03-19T12:56:54.795Z,5.30
2019-03-19T12:59:21.556Z,5.70
2019-03-19T13:01:48.417Z,6.20
2019-03-19T13:04:15.167Z,6.80
2019-03-19T13:06:41.923Z,7.30
2019-03-19T13:09:08.727Z,7.70
2019-03-19T13:11:35.476Z,7.90
2019-03-19T13:14:02.326Z,8.10
2019-03-19T13:16:29.065Z,7.90
2019-03-19T13:18:55.808Z,7.30
2019-03-19T13:21:22.587Z,6.70
2019-03-19T13:23:49.310Z,6.00
2019-03-19T13:26:16.198Z,5.70
2019-03-19T13:28:43.425Z,5.90
2019-03-19T13:31:10.261Z,6.60
2019-03-19T13:33:37.079Z,7.10
2019-03-19T13:36:04.775Z,7.30
2019-03-19T13:38:31.508Z,6.70
2019-03-19T13:40:58.382Z,6.30
2019-03-19T13:43:25.173Z,6.20
2019-03-19T13:45:51.916Z,6.70
2019-03-19T13:48:18.702Z,7.30
2019-03-19T13:50:45.455Z,7.40
2019-03-19T13:53:12.327Z,7.60
2019-03-19T13:55:39.067Z,8.10
2019-03-19T13:58:05.804Z,8.30
2019-03-19T14:00:32.686Z,8.70
2019-03-19T14:02:59.485Z,8.50
2019-03-19T14:05:26.189Z,8.30
2019-03-19T14:07:53.067Z,7.90
2019-03-19T14:10:20.012Z,8.00
2019-03-19T14:12:47.252Z,8.20
2019-03-19T14:15:17.447Z,8.40
2019-03-19T14:17:44.186Z,8.30
2019-03-19T14:20:16.913Z,8.30
2019-03-19T14:22:45.187Z,8.10
2019-03-19T14:25:14.084Z,8.20
2019-03-19T14:27:40.980Z,8.40
2019-03-19T14:30:15.164Z,8.40
2019-03-19T14:32:41.914Z,8.90
2019-03-19T14:35:08.903Z,9.30
2019-03-19T14:37:35.633Z,9.20
2019-03-19T14:40:09.514Z,9.60
2019-03-19T14:42:36.405Z,9.90
2019-03-19T14:45:06.901Z,9.30
2019-03-19T14:47:33.639Z,9.20
2019-03-19T14:50:00.449Z,9.10
2019-03-19T14:52:27.170Z,8.40
2019-03-19T14:54:54.105Z,7.60
2019-03-19T14:57:20.862Z,7.20
2019-03-19T14:59:47.608Z,6.70
2019-03-19T15:02:14.414Z,6.60
2019-03-19T15:04:41.154Z,7.00
2019-03-19T15:07:07.897Z,7.20
2019-03-19T15:09:34.713Z,7.80
2019-03-19T15:12:01.445Z,8.20
2019-03-19T15:14:28.331Z,8.10
2019-03-19T15:17:04.491Z,7.80
2019-03-19T15:19:23.620Z,7.90
2019-03-19T15:21:50.395Z,7.70
2019-03-19T15:24:17.142Z,7.80
2019-03-19T15:26:44.003Z,7.50
2019-03-19T15:29:10.770Z,7.60
2019-03-19T15:31:37.525Z,7.30
2019-03-19T15:34:04.421Z,6.80
2019-03-19T15:36:31.145Z,6.30
2019-03-19T15:38:57.912Z,5.90
2019-03-19T15:41:24.768Z,6.00
2019-03-19T15:43:51.507Z,5.40
2019-03-19T15:46:18.299Z,4.90
2019-03-19T15:48:45.213Z,4.50
2019-03-19T15:51:11.921Z,4.10
2019-03-19T15:53:38.665Z,3.90
2019-03-19T15:56:05.549Z,3.80
2019-03-19T15:58:32.276Z,3.70
2019-03-19T16:00:59.025Z,3.70
2019-03-19T16:03:25.917Z,3.40
2019-03-19T16:05:52.637Z,3.10
2019-03-19T16:08:19.361Z,3.10
2019-03-19T16:10:46.242Z,3.20
2019-03-19T16:13:12.999Z,3.00
2019-03-19T16:15:39.723Z,2.90
2019-03-19T16:18:06.593Z,2.60
2019-03-19T16:20:33.329Z,2.60
2019-03-19T16:23:00.082Z,2.50
2019-03-19T16:25:26.948Z,2.50
2019-03-19T16:28:02.532Z,2.60
2019-03-19T16:30:29.451Z,2.40
2019-03-19T16:32:56.184Z,2.40
2019-03-19T16:35:22.922Z,2.30
2019-03-19T16:37:49.773Z,2.30
2019-03-19T16:40:22.143Z,2.40
2019-03-19T16:42:48.890Z,2.20
2019-03-19T16:45:17.803Z,2.00
2019-03-19T16:47:44.440Z,2.00
2019-03-19T16:50:15.956Z,2.00
2019-03-19T16:52:42.813Z,1.90
2019-03-19T16:55:15.825Z,1.80
2019-03-19T16:57:42.546Z,1.70
2019-03-19T17:00:14.764Z,1.70
2019-03-19T17:02:41.513Z,1.60
2019-03-19T17:05:09.466Z,1.60
2019-03-19T17:07:36.233Z,1.60
2019-03-19T17:10:08.186Z,1.60
2019-03-19T17:12:35.079Z,1.40
2019-03-19T17:15:03.303Z,1.40
2019-03-19T17:17:30.030Z,1.30
2019-03-19T17:19:56.892Z,1.40
2019-03-19T17:22:23.638Z,1.30
2019-03-19T17:24:50.387Z,1.10
2019-03-19T17:27:17.270Z,1.00
2019-03-19T17:29:44.019Z,1.10
2019-03-19T17:32:13.274Z,0.90
2019-03-19T17:34:39.329Z,1.00
2019-03-19T17:37:06.067Z,0.90
2019-03-19T17:39:32.979Z,1.00
2019-03-19T17:41:59.700Z,0.90
2019-03-19T17:44:26.643Z,0.80
2019-03-19T17:46:53.493Z,0.80
2019-03-19T17:49:20.245Z,0.70
2019-03-19T17:51:46.990Z,0.60
2019-03-19T17:54:13.847Z,0.60
2019-03-19T17:56:40.583Z,0.60
2019-03-19T17:59:07.342Z,0.60
2019-03-19T18:01:35.915Z,0.40
2019-03-19T18:04:02.746Z,0.30
2019-03-19T18:06:29.479Z,0.20
2019-03-19T18:08:56.361Z,0.10
2019-03-19T18:11:23.113Z,0.20
2019-03-19T18:13:49.839Z,0.20
2019-03-19T18:16:16.727Z,0.10
2019-03-19T18:18:45.380Z,0.00
2019-03-19T18:21:12.024Z,0.00
2019-03-19T18:23:38.794Z,-0.10
2019-03-19T18:26:05.571Z,-0.30
2019-03-19T18:28:32.564Z,-0.30
2019-03-19T18:30:59.328Z,-0.30
2019-03-19T18:33:26.059Z,-0.30
2019-03-19T18:35:55.329Z,-0.30
2019-03-19T18:38:21.408Z,-0.30
2019-03-19T18:40:48.283Z,-0.40
2019-03-19T18:43:15.020Z,-0.50
2019-03-19T18:45:41.769Z,-0.50
2019-03-19T18:48:08.547Z,-0.60
2019-03-19T18:50:35.359Z,-0.70
2019-03-19T18:53:02.244Z,-0.60
2019-03-19T18:55:28.985Z,-0.70
2019-03-19T18:57:55.718Z,-0.70
2019-03-19T19:00:23.411Z,-0.70
2019-03-19T19:02:51.119Z,-0.70
2019-03-19T19:05:23.218Z,-0.90
2019-03-19T19:07:50.251Z,-0.90
2019-03-19T19:10:17.741Z,-0.90
2019-03-19T19:12:44.583Z,-0.90
2019-03-19T19:15:16.307Z,-1.00
2019-03-19T19:17:43.037Z,-1.10
2019-03-19T19:20:13.270Z,-1.10
2019-03-19T19:22:40.094Z,-1.10
2019-03-19T19:25:15.693Z,-1.10
2019-03-19T19:27:42.427Z,-1.20
2019-03-19T19:30:28.111Z,-1.30
2019-03-19T19:33:01.693Z,-1.40
2019-03-19T19:35:23.380Z,-1.60
2019-03-19T19:37:50.244Z,-1.60
2019-03-19T19:40:17.312Z,-1.50
2019-03-19T19:42:44.044Z,-1.60
2019-03-19T19:45:13.647Z,-1.70
2019-03-19T19:47:40.495Z,-1.60
2019-03-19T19:50:17.318Z,-1.60
2019-03-19T19:52:44.059Z,-1.70
2019-03-19T19:55:12.502Z,-1.70
2019-03-19T19:57:39.300Z,-1.80
2019-03-19T20:00:16.372Z,-1.90
2019-03-19T20:02:43.466Z,-1.80
2019-03-19T20:05:10.317Z,-1.90
2019-03-19T20:07:37.058Z,-1.90
2019-03-19T20:10:09.345Z,-2.10
2019-03-19T20:12:36.087Z,-2.00
2019-03-19T20:15:06.607Z,-2.20
2019-03-19T20:17:33.474Z,-2.20
2019-03-19T20:20:00.481Z,-2.10
2019-03-19T20:22:27.270Z,-2.20
2019-03-19T20:24:54.153Z,-2.10
2019-03-19T20:27:20.894Z,-2.20
2019-03-19T20:29:47.646Z,-2.30
2019-03-19T20:32:14.450Z,-2.40
2019-03-19T20:34:41.189Z,-2.40
2019-03-19T20:37:07.917Z,-2.40
2019-03-19T20:39:34.797Z,-2.50
2019-03-19T20:42:01.548Z,-2.50
2019-03-19T20:44:28.271Z,-2.50
2019-03-19T20:46:55.035Z,-2.50
2019-03-19T20:49:21.783Z,-2.50
2019-03-19T20:51:48.721Z,-2.50
2019-03-19T20:54:15.450Z,-2.60
2019-03-19T20:56:42.193Z,-2.70
2019-03-19T20:59:08.964Z,-2.80
2019-03-19T21:01:35.710Z,-2.80
2019-03-19T21:04:02.603Z,-2.80
2019-03-19T21:06:29.341Z,-2.80
2019-03-19T21:08:56.100Z,-2.80
2019-03-19T21:11:22.977Z,-2.70
2019-03-19T21:13:49.729Z,-2.70
2019-03-19T21:16:16.467Z,-2.70
2019-03-19T21:18:43.372Z,-2.70
2019-03-19T21:21:10.101Z,-2.90
2019-03-19T21:23:36.851Z,-3.00
2019-03-19T21:26:03.720Z,-3.10
2019-03-19T21:28:30.470Z,-3.20
2019-03-19T21:30:57.223Z,-3.20
2019-03-19T21:33:24.110Z,-3.20
2019-03-19T21:35:50.843Z,-3.20
2019-03-19T21:38:17.581Z,-3.30
2019-03-19T21:40:44.447Z,-3.30
2019-03-19T21:43:11.198Z,-3.40
2019-03-19T21:45:38.028Z,-3.50
2019-03-19T21:48:04.859Z,-3.50
2019-03-19T21:50:31.614Z,-3.60
2019-03-19T21:52:58.537Z,-3.60
2019-03-19T21:55:25.276Z,-3.60
2019-03-19T21:57:52.002Z,-3.70
2019-03-19T22:00:24.862Z,-3.70
2019-03-19T22:02:51.586Z,-3.60
2019-03-19T22:05:18.396Z,-3.60
2019-03-19T22:07:45.341Z,-3.70
2019-03-19T22:10:15.476Z,-3.60
2019-03-19T22:12:42.499Z,-3.70
2019-03-19T22:15:21.313Z,-3.80
2019-03-19T22:17:48.189Z,-3.80
2019-03-19T22:20:14.999Z,-3.80
2019-03-19T22:22:41.738Z,-3.80
2019-03-19T22:25:12.047Z,-3.80
2019-03-19T22:27:38.734Z,-3.70
2019-03-19T22:30:21.398Z,-3.70
2019-03-19T22:32:48.144Z,-3.70
2019-03-19T22:35:15.161Z,-3.80
2019-03-19T22:37:42.044Z,-3.70
2019-03-19T22:40:17.836Z,-3.80
2019-03-19T22:42:44.821Z,-3.90
2019-03-19T22:45:13.860Z,-3.90
2019-03-19T22:47:40.601Z,-4.00
2019-03-19T22:50:17.710Z,-3.90
2019-03-19T22:52:44.607Z,-3.80
2019-03-19T22:55:12.728Z,-3.80
2019-03-19T22:57:39.736Z,-3.90
2019-03-19T23:00:16.815Z,-3.90
2019-03-19T23:02:43.683Z,-3.90
2019-03-19T23:05:13.131Z,-3.90
2019-03-19T23:07:39.864Z,-4.00
2019-03-19T23:10:06.726Z,-4.10
2019-03-19T23:12:33.469Z,-4.10
2019-03-19T23:15:00.355Z,-4.20
2019-03-19T23:17:27.271Z,-4.30
2019-03-19T23:19:54.017Z,-4.40
2019-03-19T23:22:20.751Z,-4.40
2019-03-19T23:24:47.538Z,-4.40
2019-03-19T23:27:14.270Z,-4.40
2019-03-19T23:29:41.163Z,-4.50
2019-03-19T23:32:07.887Z,-4.50
2019-03-19T23:34:38.432Z,-4.50
2019-03-19T23:37:03.395Z,-4.60
2019-03-19T23:39:30.142Z,-4.60
2019-03-19T23:41:56.854Z,-4.70
2019-03-19T23:44:23.636Z,-4.80
2019-03-19T23:46:50.367Z,-4.70
2019-03-19T23:49:17.223Z,-4.80
2019-03-19T23:51:43.968Z,-4.90
2019-03-19T23:54:10.722Z,-5.00
2019-03-19T23:56:37.604Z,-4.90
2019-03-19T23:59:04.430Z,-4.90
